National Weather Service Raw Text Product

Displaying AFOS PIL: TAFALO Received: 2018-01-12 07:01 UTC


312 
FTUS43 KDMX 120701 AAB
TAFALO
TAF AMD
KALO 120701Z 1207/1306 33018G26KT 6SM BLSN SCT018
     FM120900 33014KT P6SM SKC
     FM130300 35009KT P6SM BKN090=